createdAt,value
2023-02-05T00:01:50.274Z,102482.84
2023-02-05T00:04:16.924Z,102482.81
2023-02-05T00:06:44.408Z,102474.41
2023-02-05T00:09:11.540Z,102465.16
2023-02-05T00:11:38.266Z,102467.84
2023-02-05T00:14:05.039Z,102473.81
2023-02-05T00:16:31.525Z,102478.75
2023-02-05T00:18:58.169Z,102480.44
2023-02-05T00:21:24.929Z,102471.03
2023-02-05T00:23:51.754Z,102478.06
2023-02-05T00:26:19.047Z,102475.56
2023-02-05T00:28:46.133Z,102473.00
2023-02-05T00:31:17.123Z,102465.19
2023-02-05T00:33:44.244Z,102461.63
2023-02-05T00:36:12.870Z,102455.75
2023-02-05T00:38:40.211Z,102454.84
2023-02-05T00:41:07.370Z,102451.41
2023-02-05T00:43:33.837Z,102459.06
2023-02-05T00:46:00.851Z,102450.56
2023-02-05T00:48:27.805Z,102459.25
2023-02-05T00:50:55.123Z,102458.25
2023-02-05T00:53:22.957Z,102450.50
2023-02-05T00:55:50.549Z,102454.91
2023-02-05T00:58:17.696Z,102457.34
2023-02-05T01:00:44.485Z,102453.97
2023-02-05T01:03:11.824Z,102456.50
2023-02-05T01:05:39.402Z,102449.53
2023-02-05T01:08:08.080Z,102442.63
2023-02-05T01:10:35.457Z,102446.84
2023-02-05T01:13:02.084Z,102444.38
2023-02-05T01:15:29.027Z,102439.28
2023-02-05T01:17:55.723Z,102435.72
2023-02-05T01:20:22.594Z,102427.06
2023-02-05T01:22:49.499Z,102424.53
2023-02-05T01:25:16.467Z,102422.84
2023-02-05T01:27:44.802Z,102415.16
2023-02-05T01:30:11.878Z,102424.63
2023-02-05T01:32:40.531Z,102414.31
2023-02-05T01:35:08.811Z,102408.44
2023-02-05T01:37:35.402Z,102400.53
2023-02-05T01:40:02.206Z,102390.16
2023-02-05T01:42:31.912Z,102392.78
2023-02-05T01:45:23.691Z,102384.16
2023-02-05T01:48:10.272Z,102383.28
2023-02-05T01:51:01.601Z,102385.06
2023-02-05T01:53:49.448Z,102379.75
2023-02-05T01:56:41.431Z,102392.34
2023-02-05T01:59:30.328Z,102394.00
2023-02-05T02:02:17.442Z,102377.75
2023-02-05T02:04:52.679Z,102371.69
2023-02-05T02:07:22.496Z,102381.94
2023-02-05T02:09:50.057Z,102372.63
2023-02-05T02:12:23.405Z,102355.28
2023-02-05T02:14:53.417Z,102347.34
2023-02-05T02:17:21.082Z,102346.34
2023-02-05T02:19:59.892Z,102342.00
2023-02-05T02:22:57.462Z,102342.03
2023-02-05T02:25:37.984Z,102346.81
2023-02-05T02:28:09.975Z,102361.72
2023-02-05T02:30:40.975Z,102358.25
2023-02-05T02:33:30.408Z,102356.63
2023-02-05T02:36:12.603Z,102358.25
2023-02-05T02:38:44.362Z,102361.66
2023-02-05T02:41:20.038Z,102359.03
2023-02-05T02:43:55.980Z,102357.19
2023-02-05T02:46:28.219Z,102366.72
2023-02-05T02:48:58.394Z,102363.22
2023-02-05T02:51:28.448Z,102356.25
2023-02-05T02:54:00.608Z,102348.66
2023-02-05T02:56:29.901Z,102347.59
2023-02-05T02:59:06.609Z,102337.16
2023-02-05T03:01:37.727Z,102338.13
2023-02-05T03:04:11.911Z,102332.91
2023-02-05T03:06:40.742Z,102321.78
2023-02-05T03:09:20.622Z,102328.63
2023-02-05T03:11:47.782Z,102331.25
2023-02-05T03:14:14.805Z,102329.56
2023-02-05T03:16:41.320Z,102326.00
2023-02-05T03:19:08.699Z,102320.84
2023-02-05T03:21:44.485Z,102321.53
2023-02-05T03:24:11.712Z,102313.88
2023-02-05T03:26:42.085Z,102308.50
2023-02-05T03:29:26.784Z,102300.84
2023-02-05T03:32:28.301Z,102306.72
2023-02-05T03:35:26.266Z,102305.97
2023-02-05T03:38:11.310Z,102304.22
2023-02-05T03:40:55.390Z,102303.34
2023-02-05T03:43:45.797Z,102298.78
2023-02-05T03:46:34.928Z,102316.22
2023-02-05T03:49:18.321Z,102320.50
2023-02-05T03:51:56.527Z,102320.50
2023-02-05T03:54:33.424Z,102310.31
2023-02-05T03:57:25.011Z,102301.72
2023-02-05T03:59:53.622Z,102306.00
2023-02-05T04:02:22.209Z,102295.56
2023-02-05T04:04:49.263Z,102297.94
2023-02-05T04:07:16.983Z,102303.34
2023-02-05T04:09:45.135Z,102304.25
2023-02-05T04:12:11.800Z,102303.25
2023-02-05T04:14:39.750Z,102298.25
2023-02-05T04:17:07.782Z,102303.44
2023-02-05T04:19:34.787Z,102293.81
2023-02-05T04:22:01.998Z,102294.81
2023-02-05T04:24:31.807Z,102301.78
2023-02-05T04:26:58.846Z,102302.69
2023-02-05T04:29:25.890Z,102305.91
2023-02-05T04:31:53.029Z,102306.84
2023-02-05T04:34:20.128Z,102321.50
2023-02-05T04:36:46.861Z,102319.06
2023-02-05T04:39:14.428Z,102319.09
2023-02-05T04:41:41.424Z,102316.53
2023-02-05T04:44:08.426Z,102314.81
2023-02-05T04:46:35.338Z,102310.59
2023-02-05T04:49:02.134Z,102304.56
2023-02-05T04:51:28.621Z,102318.06
2023-02-05T04:53:55.386Z,102313.16
2023-02-05T04:56:21.878Z,102312.34
2023-02-05T04:58:48.840Z,102303.69
2023-02-05T05:01:18.978Z,102317.41
2023-02-05T05:03:46.181Z,102324.13
2023-02-05T05:06:14.285Z,102323.50
2023-02-05T05:08:41.092Z,102320.94
2023-02-05T05:11:10.890Z,102304.59
2023-02-05T05:13:37.998Z,102302.94
2023-02-05T05:16:05.779Z,102307.22
2023-02-05T05:18:33.188Z,102310.31
2023-02-05T05:20:59.619Z,102290.75
2023-02-05T05:23:26.802Z,102289.94
2023-02-05T05:25:53.635Z,102289.94
2023-02-05T05:28:20.052Z,102290.00
2023-02-05T05:30:48.008Z,102291.69
2023-02-05T05:33:14.925Z,102291.69
2023-02-05T05:35:41.991Z,102312.00
2023-02-05T05:38:08.902Z,102320.09
2023-02-05T05:40:54.074Z,102316.78
2023-02-05T05:43:40.184Z,102321.16
2023-02-05T05:46:07.936Z,102323.75
2023-02-05T05:48:34.613Z,102322.72
2023-02-05T05:51:01.361Z,102316.38
2023-02-05T05:53:28.383Z,102309.66
2023-02-05T05:55:55.139Z,102292.41
2023-02-05T05:58:21.847Z,102289.81
2023-02-05T06:00:48.362Z,102289.03
2023-02-05T06:03:15.183Z,102293.19
2023-02-05T06:05:42.415Z,102293.22
2023-02-05T06:08:08.836Z,102284.63
2023-02-05T06:10:36.392Z,102287.34
2023-02-05T06:13:03.097Z,102303.44
2023-02-05T06:15:29.585Z,102308.41
2023-02-05T06:17:56.554Z,102310.31
2023-02-05T06:20:23.201Z,102313.09
2023-02-05T06:22:49.877Z,102313.09
2023-02-05T06:25:17.391Z,102319.19
2023-02-05T06:27:44.210Z,102306.28
2023-02-05T06:30:11.565Z,102314.88
2023-02-05T06:32:38.324Z,102321.78
2023-02-05T06:35:05.455Z,102311.44
2023-02-05T06:37:46.915Z,102308.06
2023-02-05T06:40:18.412Z,102305.50
2023-02-05T06:42:45.438Z,102310.59
2023-02-05T06:45:12.252Z,102307.19
2023-02-05T06:47:39.050Z,102318.28
2023-02-05T06:50:06.740Z,102316.16
2023-02-05T06:52:33.988Z,102313.56
2023-02-05T06:55:00.544Z,102308.41
2023-02-05T06:57:27.066Z,102308.66
2023-02-05T06:59:53.577Z,102297.59
2023-02-05T07:02:20.267Z,102281.19
2023-02-05T07:04:46.815Z,102282.06
2023-02-05T07:07:16.789Z,102288.19
2023-02-05T07:09:44.203Z,102293.22
2023-02-05T07:12:10.704Z,102291.69
2023-02-05T07:14:41.718Z,102303.66
2023-02-05T07:17:09.187Z,102295.84
2023-02-05T07:19:36.953Z,102293.28
2023-02-05T07:22:05.196Z,102287.19
2023-02-05T07:24:31.845Z,102299.34
2023-02-05T07:26:58.447Z,102299.28
2023-02-05T07:29:25.131Z,102314.84
2023-02-05T07:31:52.323Z,102304.53
2023-02-05T07:34:19.708Z,102310.44
2023-02-05T07:36:49.717Z,102295.75
2023-02-05T07:39:16.208Z,102298.47
2023-02-05T07:41:43.189Z,102295.09
2023-02-05T07:44:17.575Z,102287.34
2023-02-05T07:46:44.268Z,102297.63
2023-02-05T07:49:11.384Z,102296.69
2023-02-05T07:51:38.703Z,102300.25
2023-02-05T07:54:09.855Z,102308.59
2023-02-05T07:56:36.674Z,102287.97
2023-02-05T07:59:03.857Z,102273.53
2023-02-05T08:01:30.347Z,102277.06
2023-02-05T08:03:57.453Z,102265.00
2023-02-05T08:06:24.158Z,102262.38
2023-02-05T08:08:51.069Z,102260.75
2023-02-05T08:11:18.779Z,102259.09
2023-02-05T08:13:46.461Z,102253.13
2023-02-05T08:16:15.978Z,102258.16
2023-02-05T08:18:43.252Z,102258.13
2023-02-05T08:21:09.814Z,102258.72
2023-02-05T08:23:37.055Z,102256.00
2023-02-05T08:26:03.894Z,102257.78
2023-02-05T08:28:30.662Z,102264.66
2023-02-05T08:30:58.587Z,102268.00
2023-02-05T08:33:26.050Z,102272.22
2023-02-05T08:35:53.240Z,102270.38
2023-02-05T08:38:20.121Z,102260.16
2023-02-05T08:40:46.958Z,102259.28
2023-02-05T08:43:13.602Z,102256.75
2023-02-05T08:45:40.484Z,102267.16
2023-02-05T08:48:07.558Z,102251.69
2023-02-05T08:50:33.992Z,102256.00
2023-02-05T08:53:01.079Z,102255.94
2023-02-05T08:55:27.586Z,102246.44
2023-02-05T08:57:54.162Z,102247.38
2023-02-05T09:00:21.701Z,102245.69
2023-02-05T09:02:48.492Z,102251.03
2023-02-05T09:05:14.979Z,102251.69
2023-02-05T09:07:41.880Z,102234.41
2023-02-05T09:10:11.202Z,102238.09
2023-02-05T09:12:37.875Z,102238.91
2023-02-05T09:15:06.236Z,102233.69
2023-02-05T09:17:32.785Z,102228.81
2023-02-05T09:19:59.784Z,102230.56
2023-02-05T09:22:26.390Z,102227.09
2023-02-05T09:24:53.005Z,102232.28
2023-02-05T09:27:19.478Z,102233.13
2023-02-05T09:29:46.558Z,102227.94
2023-02-05T09:32:13.342Z,102232.50
2023-02-05T09:34:40.115Z,102230.69
2023-02-05T09:37:06.772Z,102231.44
2023-02-05T09:42:39.563Z,102238.28
2023-02-05T09:45:15.037Z,102240.16
2023-02-05T09:47:54.153Z,102229.72
2023-02-05T09:50:31.716Z,102237.44
2023-02-05T09:53:11.556Z,102239.97
2023-02-05T09:55:42.328Z,102241.59
2023-02-05T09:58:17.752Z,102236.53
2023-02-05T10:00:59.381Z,102234.84
2023-02-05T10:03:35.414Z,102237.59
2023-02-05T10:06:38.856Z,102232.34
2023-02-05T10:09:31.283Z,102230.69
2023-02-05T10:12:25.505Z,102215.38
2023-02-05T10:15:20.039Z,102214.50
2023-02-05T10:18:10.596Z,102216.88
2023-02-05T10:20:49.299Z,102223.97
2023-02-05T10:23:41.161Z,102211.00
2023-02-05T10:26:21.030Z,102212.84
2023-02-05T10:28:55.296Z,102207.81
2023-02-05T10:31:40.044Z,102199.03
2023-02-05T10:34:22.058Z,102195.63
2023-02-05T10:36:52.517Z,102197.34
2023-02-05T10:39:20.279Z,102190.44
2023-02-05T10:41:59.475Z,102191.31
2023-02-05T10:44:34.461Z,102198.28
2023-02-05T10:47:10.015Z,102200.59
2023-02-05T10:49:48.672Z,102189.44
2023-02-05T10:52:16.267Z,102192.09
2023-02-05T10:54:44.139Z,102199.03
2023-02-05T10:57:17.417Z,102199.78
2023-02-05T11:00:08.498Z,102189.44
2023-02-05T11:02:42.292Z,102170.34
2023-02-05T11:05:21.598Z,102174.78
2023-02-05T11:07:51.534Z,102176.53
2023-02-05T11:10:28.267Z,102181.72
2023-02-05T11:13:04.980Z,102177.53
2023-02-05T11:15:33.519Z,102169.97
2023-02-05T11:18:03.237Z,102166.59
2023-02-05T11:20:36.563Z,102167.53
2023-02-05T11:23:21.285Z,102159.78
2023-02-05T11:26:01.154Z,102162.44
2023-02-05T11:28:30.515Z,102157.31
2023-02-05T11:30:58.364Z,102157.19
2023-02-05T11:33:28.198Z,102155.50
2023-02-05T11:35:58.944Z,102147.44
2023-02-05T11:38:32.231Z,102157.69
2023-02-05T11:41:02.629Z,102156.06
2023-02-05T11:43:34.557Z,102159.75
2023-02-05T11:46:03.818Z,102152.91
2023-02-05T11:48:44.370Z,102144.31
2023-02-05T11:51:17.382Z,102146.91
2023-02-05T11:54:21.448Z,102147.88
2023-02-05T11:57:10.224Z,102135.06
2023-02-05T11:59:39.577Z,102135.84
2023-02-05T12:02:31.124Z,102131.59
2023-02-05T12:05:13.299Z,102137.72
2023-02-05T12:07:47.934Z,102134.22
2023-02-05T12:10:26.204Z,102137.69
2023-02-05T12:13:07.076Z,102134.91
2023-02-05T12:16:05.105Z,102132.25
2023-02-05T12:18:56.618Z,102127.16
2023-02-05T12:21:37.467Z,102123.81
2023-02-05T12:24:33.314Z,102118.75
2023-02-05T12:27:41.871Z,102118.88
2023-02-05T12:30:17.459Z,102109.50
2023-02-05T12:32:53.749Z,102106.13
2023-02-05T12:35:32.522Z,102109.63
2023-02-05T12:38:21.187Z,102100.97
2023-02-05T12:41:30.806Z,102095.63
2023-02-05T12:44:38.315Z,102102.69
2023-02-05T12:47:08.136Z,102096.75
2023-02-05T12:49:54.559Z,102104.38
2023-02-05T12:52:39.775Z,102103.56
2023-02-05T12:55:27.764Z,102105.38
2023-02-05T12:58:03.056Z,102097.63
2023-02-05T13:00:40.212Z,102104.53
2023-02-05T13:03:27.610Z,102102.81
2023-02-05T13:06:16.900Z,102100.94
2023-02-05T13:09:01.091Z,102110.41
2023-02-05T13:11:38.395Z,102099.22
2023-02-05T13:14:13.916Z,102100.28
2023-02-05T13:16:46.091Z,102093.47
2023-02-05T13:19:30.988Z,102099.56
2023-02-05T13:22:19.925Z,102091.88
2023-02-05T13:25:43.898Z,102090.13
2023-02-05T13:28:40.988Z,102091.63
2023-02-05T13:31:17.342Z,102091.66
2023-02-05T13:33:44.514Z,102089.97
2023-02-05T13:36:29.483Z,102088.34
2023-02-05T13:39:46.855Z,102078.09
2023-02-05T13:42:44.093Z,102083.34
2023-02-05T13:45:47.878Z,102080.78
2023-02-05T13:48:40.547Z,102072.19
2023-02-05T13:51:21.842Z,102062.63
2023-02-05T13:54:26.023Z,102055.66
2023-02-05T13:57:13.087Z,102058.16
2023-02-05T13:59:51.442Z,102054.00
2023-02-05T14:02:37.113Z,102047.97
2023-02-05T14:05:05.315Z,102040.22
2023-02-05T14:07:45.959Z,102041.94
2023-02-05T14:10:26.652Z,102042.06
2023-02-05T14:12:53.944Z,102039.38
2023-02-05T14:15:20.748Z,102043.72
2023-02-05T14:17:47.449Z,102042.91
2023-02-05T14:20:26.533Z,102047.91
2023-02-05T14:23:01.151Z,102050.41
2023-02-05T14:25:38.073Z,102054.72
2023-02-05T14:28:05.048Z,102066.72
2023-02-05T14:30:58.430Z,102074.47
2023-02-05T14:33:39.117Z,102069.34
2023-02-05T14:36:15.416Z,102072.91
2023-02-05T14:38:45.124Z,102078.00
2023-02-05T14:41:20.778Z,102085.72
2023-02-05T14:44:01.154Z,102084.16
2023-02-05T14:46:49.529Z,102085.78
2023-02-05T14:49:25.789Z,102087.44
2023-02-05T14:51:59.989Z,102088.25
2023-02-05T14:54:30.950Z,102092.41
2023-02-05T14:57:22.158Z,102090.75
2023-02-05T15:00:21.772Z,102097.56
2023-02-05T15:03:15.357Z,102101.69
2023-02-05T15:05:44.859Z,102096.75
2023-02-05T15:08:19.072Z,102099.25
2023-02-05T15:10:56.770Z,102096.66
2023-02-05T15:13:25.358Z,102110.53
2023-02-05T15:16:16.210Z,102110.56
2023-02-05T15:18:54.120Z,102112.16
2023-02-05T15:21:23.700Z,102121.56
2023-02-05T15:23:57.901Z,102119.13
2023-02-05T15:26:30.838Z,102113.06
2023-02-05T15:29:35.071Z,102122.59
2023-02-05T15:32:05.994Z,102120.13
2023-02-05T15:34:43.220Z,102129.63
2023-02-05T15:37:10.332Z,102132.22
2023-02-05T15:39:55.315Z,102131.31
2023-02-05T15:42:36.866Z,102133.69
2023-02-05T15:45:44.653Z,102130.41
2023-02-05T15:48:11.567Z,102132.03
2023-02-05T15:50:52.448Z,102139.84
2023-02-05T15:53:36.526Z,102139.94
2023-02-05T15:56:25.575Z,102147.66
2023-02-05T15:59:10.716Z,102148.47
2023-02-05T16:01:44.869Z,102151.81
2023-02-05T16:04:30.545Z,102153.66
2023-02-05T16:06:57.975Z,102151.16
2023-02-05T16:09:27.100Z,102157.22
2023-02-05T16:11:55.774Z,102152.00
2023-02-05T16:14:28.481Z,102160.66
2023-02-05T16:16:55.477Z,102168.44
2023-02-05T16:19:29.553Z,102169.25
2023-02-05T16:22:01.929Z,102175.31
2023-02-05T16:24:33.840Z,102170.09
2023-02-05T16:27:06.651Z,102175.94
2023-02-05T16:29:47.663Z,102186.28
2023-02-05T16:32:29.483Z,102188.09
2023-02-05T16:34:57.069Z,102188.91
2023-02-05T16:37:27.731Z,102199.31
2023-02-05T16:39:57.111Z,102204.31
2023-02-05T16:42:23.723Z,102218.94
2023-02-05T16:45:06.041Z,102221.53
2023-02-05T16:47:32.792Z,102217.31
2023-02-05T16:49:59.443Z,102221.63
2023-02-05T16:52:35.567Z,102225.78
2023-02-05T16:55:27.979Z,102229.19
2023-02-05T16:58:03.552Z,102229.19
2023-02-05T17:00:30.377Z,102229.06
2023-02-05T17:03:07.442Z,102223.91
2023-02-05T17:05:36.920Z,102238.59
2023-02-05T17:08:07.677Z,102246.19
2023-02-05T17:10:53.965Z,102250.50
2023-02-05T17:13:44.813Z,102255.72
2023-02-05T17:16:31.775Z,102262.69
2023-02-05T17:19:04.320Z,102260.97
2023-02-05T17:21:36.211Z,102263.53
2023-02-05T17:24:06.847Z,102263.69
2023-02-05T17:26:40.621Z,102267.22
2023-02-05T17:29:15.608Z,102262.81
2023-02-05T17:31:42.390Z,102261.06
2023-02-05T17:34:10.612Z,102261.75
2023-02-05T17:36:37.130Z,102271.09
2023-02-05T17:39:04.450Z,102276.38
2023-02-05T17:41:55.304Z,102278.94
2023-02-05T17:44:22.283Z,102272.16
2023-02-05T17:46:48.746Z,102278.13
2023-02-05T17:49:15.616Z,102280.59
2023-02-05T17:51:42.856Z,102281.44
2023-02-05T17:54:17.698Z,102283.06
2023-02-05T17:56:45.634Z,102286.59
2023-02-05T17:59:15.170Z,102283.97
2023-02-05T18:01:41.906Z,102286.47
2023-02-05T18:04:08.483Z,102292.38
2023-02-05T18:06:36.573Z,102287.28
2023-02-05T18:09:03.598Z,102284.50
2023-02-05T18:11:30.172Z,102286.34
2023-02-05T18:13:57.401Z,102282.78
2023-02-05T18:16:24.543Z,102285.34
2023-02-05T18:18:51.024Z,102287.91
2023-02-05T18:21:17.850Z,102300.88
2023-02-05T18:23:44.584Z,102302.44
2023-02-05T18:26:11.255Z,102304.06
2023-02-05T18:28:37.737Z,102311.06
2023-02-05T18:31:07.528Z,102323.06
2023-02-05T18:33:35.170Z,102328.22
2023-02-05T18:36:13.159Z,102323.09
2023-02-05T18:38:40.901Z,102330.19
2023-02-05T18:41:16.206Z,102331.81
2023-02-05T18:43:43.892Z,102325.88
2023-02-05T18:46:14.493Z,102322.22
2023-02-05T18:48:41.766Z,102334.25
2023-02-05T18:51:10.920Z,102325.63
2023-02-05T18:53:39.275Z,102325.69
2023-02-05T18:56:09.669Z,102326.53
2023-02-05T18:58:36.298Z,102331.59
2023-02-05T19:01:14.038Z,102335.91
2023-02-05T19:03:41.853Z,102350.66
2023-02-05T19:06:10.088Z,102348.75
2023-02-05T19:08:37.454Z,102343.66
2023-02-05T19:11:16.260Z,102353.09
2023-02-05T19:13:43.154Z,102353.16
2023-02-05T19:16:12.727Z,102341.19
2023-02-05T19:18:44.765Z,102348.94
2023-02-05T19:21:16.787Z,102348.84
2023-02-05T19:23:45.021Z,102341.19
2023-02-05T19:26:14.817Z,102338.63
2023-02-05T19:28:42.733Z,102347.91
2023-02-05T19:31:12.044Z,102354.81
2023-02-05T19:33:39.275Z,102358.97
2023-02-05T19:36:08.272Z,102369.25
2023-02-05T19:38:37.010Z,102365.81
2023-02-05T19:41:12.734Z,102365.81
2023-02-05T19:43:40.733Z,102382.19
2023-02-05T19:46:08.324Z,102376.78
2023-02-05T19:48:36.151Z,102384.38
2023-02-05T19:51:04.700Z,102379.22
2023-02-05T19:53:31.970Z,102374.13
2023-02-05T19:56:06.759Z,102383.38
2023-02-05T19:58:38.079Z,102385.16
2023-02-05T20:01:32.028Z,102392.72
2023-02-05T20:04:12.974Z,102386.56
2023-02-05T20:06:40.841Z,102397.66
2023-02-05T20:09:11.908Z,102403.59
2023-02-05T20:11:40.112Z,102399.81
2023-02-05T20:14:07.504Z,102403.22
2023-02-05T20:16:34.885Z,102402.47
2023-02-05T20:19:01.747Z,102401.59
2023-02-05T20:21:30.061Z,102401.63
2023-02-05T20:23:57.265Z,102409.53
2023-02-05T20:26:23.810Z,102407.63
2023-02-05T20:29:12.146Z,102423.19
2023-02-05T20:31:42.703Z,102413.59
2023-02-05T20:34:22.715Z,102424.03
2023-02-05T20:36:59.639Z,102426.72
2023-02-05T20:39:28.760Z,102435.25
2023-02-05T20:41:57.847Z,102433.63
2023-02-05T20:44:36.278Z,102458.59
2023-02-05T20:47:04.610Z,102450.94
2023-02-05T20:49:31.198Z,102444.91
2023-02-05T20:51:58.086Z,102448.25
2023-02-05T20:54:25.024Z,102452.53
2023-02-05T20:56:57.170Z,102446.56
2023-02-05T20:59:24.665Z,102444.75
2023-02-05T21:01:51.437Z,102444.78
2023-02-05T21:04:20.434Z,102443.13
2023-02-05T21:06:48.168Z,102456.78
2023-02-05T21:09:15.926Z,102463.78
2023-02-05T21:11:42.783Z,102460.22
2023-02-05T21:14:09.934Z,102483.50
2023-02-05T21:16:36.905Z,102481.63
2023-02-05T21:19:06.032Z,102490.00
2023-02-05T21:21:34.947Z,102491.09
2023-02-05T21:24:04.278Z,102486.03
2023-02-05T21:26:37.921Z,102487.59
2023-02-05T21:29:10.389Z,102495.53
2023-02-05T21:31:40.143Z,102498.06
2023-02-05T21:34:10.537Z,102497.88
2023-02-05T21:36:37.620Z,102493.72
2023-02-05T21:39:04.646Z,102503.84
2023-02-05T21:41:31.615Z,102503.91
2023-02-05T21:44:00.392Z,102502.13
2023-02-05T21:46:31.809Z,102494.19
2023-02-05T21:49:00.690Z,102504.63
2023-02-05T21:51:30.436Z,102509.03
2023-02-05T21:53:59.286Z,102510.75
2023-02-05T21:56:32.231Z,102510.53
2023-02-05T21:58:59.088Z,102514.91
2023-02-05T22:01:28.920Z,102512.25
2023-02-05T22:04:01.052Z,102504.53
2023-02-05T22:06:31.064Z,102506.22
2023-02-05T22:08:58.845Z,102506.25
2023-02-05T22:11:26.564Z,102507.97
2023-02-05T22:13:54.873Z,102513.44
2023-02-05T22:16:28.860Z,102509.75
2023-02-05T22:18:56.626Z,102509.06
2023-02-05T22:21:27.061Z,102506.25
2023-02-05T22:23:54.167Z,102507.78
2023-02-05T22:26:24.277Z,102503.00
2023-02-05T22:28:51.576Z,102514.44
2023-02-05T22:31:20.453Z,102531.84
2023-02-05T22:33:49.162Z,102535.28
2023-02-05T22:36:18.477Z,102537.91
2023-02-05T22:38:44.976Z,102527.81
2023-02-05T22:41:16.525Z,102535.38
2023-02-05T22:43:43.796Z,102554.53
2023-02-05T22:46:13.159Z,102561.84
2023-02-05T22:48:41.790Z,102562.63
2023-02-05T22:51:12.020Z,102571.94
2023-02-05T22:53:38.807Z,102570.31
2023-02-05T22:56:08.412Z,102583.19
2023-02-05T22:58:35.629Z,102593.50
2023-02-05T23:01:14.015Z,102586.50
2023-02-05T23:03:41.217Z,102585.59
2023-02-05T23:06:17.575Z,102587.28
2023-02-05T23:08:51.390Z,102570.22
2023-02-05T23:11:18.029Z,102571.03
2023-02-05T23:13:45.065Z,102578.97
2023-02-05T23:16:14.340Z,102573.50
2023-02-05T23:18:42.125Z,102584.06
2023-02-05T23:21:11.061Z,102578.06
2023-02-05T23:23:37.839Z,102579.53
2023-02-05T23:26:09.719Z,102583.91
2023-02-05T23:28:36.357Z,102587.53
2023-02-05T23:31:03.551Z,102595.25
2023-02-05T23:33:31.100Z,102596.91
2023-02-05T23:35:58.210Z,102594.38
2023-02-05T23:38:25.077Z,102593.41
2023-02-05T23:40:52.990Z,102592.25
2023-02-05T23:43:19.983Z,102583.13
2023-02-05T23:45:47.100Z,102604.50
2023-02-05T23:48:14.006Z,102599.25
2023-02-05T23:50:40.930Z,102597.53
2023-02-05T23:53:08.084Z,102595.78
2023-02-05T23:55:39.293Z,102592.28
2023-02-05T23:58:07.096Z,102595.44
